Time;durP1;ratioP1;P1;durP2;ratioP2;P2;SDS_P1;SDS_P2;PMS_P1;PMS_P2;Temp;Humidity;BMP_temperature;BMP_pressure;BME280_temperature;BME280_humidity;BME280_pressure;Samples;Min_cycle;Max_cycle;Signal;HPM_P1;HPM_P2
2023/01/30 00:00:34;;;;;;;;;;;2.40;84.60;;;2.92;54.14;99421.97;5016212;27;114346;-76
2023/01/30 00:03:01;;;;;;;;;;;2.50;84.70;;;2.92;54.12;99410.25;5023249;27;113590;-76
2023/01/30 00:05:27;;;;;;;;;;;2.40;84.60;;;2.88;54.29;99410.72;5021055;28;123947;-76
2023/01/30 00:07:53;;;;;;;;;;;2.40;84.60;;;2.85;54.36;99400.31;5035432;27;125854;-77
2023/01/30 00:10:20;;;;;;;;;;;2.40;84.60;;;2.85;54.35;99402.22;5043088;27;114732;-76
2023/01/30 00:12:46;;;;;;;;;;;2.40;84.70;;;2.84;53.96;99389.63;5044184;27;114154;-76
2023/01/30 00:15:12;;;;;;;;;;;2.40;84.70;;;2.83;54.31;99377.91;5044233;27;124093;-76
2023/01/30 00:17:39;;;;;;;;;;;1.30;83.80;;;2.84;54.32;99367.81;5042553;27;123860;-76
2023/01/30 00:20:05;;;;;;;;;;;2.40;84.90;;;2.84;54.28;99354.16;5014869;28;114932;-76
2023/01/30 00:22:31;;;;;;;;;;;2.40;84.90;;;2.82;54.33;99356.31;5028345;27;113037;-76
2023/01/30 00:24:58;;;;;;;;;;;2.30;84.90;;;2.78;54.30;99364.16;5039248;27;124051;-76
2023/01/30 00:27:24;;;;;;;;;;;2.30;84.90;;;2.77;54.45;99372.63;5044812;27;124057;-76
2023/01/30 00:29:50;;;;;;;;;;;2.30;84.90;;;2.78;54.47;99374.25;5022860;28;114436;-77
2023/01/30 00:32:16;;;;;;;;;;;2.30;84.90;;;2.78;54.59;99369.63;5031568;27;113662;-76
2023/01/30 00:34:42;;;;;;;;;;;2.30;84.90;;;2.79;54.47;99359.53;5042458;27;124032;-76
2023/01/30 00:37:09;;;;;;;;;;;2.30;84.90;;;2.79;54.38;99354.06;5019189;27;124486;-76
2023/01/30 00:39:35;;;;;;;;;;;2.40;84.90;;;2.78;54.46;99347.78;5025660;27;115309;-76
2023/01/30 00:47:31;;;;;;;;;;;2.30;84.80;;;2.76;54.66;99351.84;5019979;27;124638;-76
2023/01/30 00:49:58;;;;;;;;;;;2.30;84.90;;;2.77;54.35;99357.06;5010438;27;115083;-76
2023/01/30 00:52:24;;;;;;;;;;;2.30;84.90;;;2.77;54.55;99362.53;5022815;27;113679;-76
2023/01/30 00:54:51;;;;;;;;;;;2.30;84.90;;;2.79;54.49;99374.00;5025197;27;124292;-76
2023/01/30 00:57:17;;;;;;;;;;;2.30;84.90;;;2.80;54.30;99380.31;5025666;27;123975;-76
2023/01/30 00:59:43;;;;;;;;;;;2.40;85.00;;;2.81;54.47;99390.13;5021478;28;114385;-76
2023/01/30 01:02:10;;;;;;;;;;;2.40;85.00;;;2.82;54.43;99394.50;5041977;27;113707;-75
2023/01/30 01:04:42;;;;;;;;;;;2.40;85.00;;;2.81;54.05;99414.69;5003671;28;123946;-76
2023/01/30 01:07:09;;;;;;;;;;;2.40;85.10;;;2.82;54.37;99429.97;5045317;27;123918;-76
2023/01/30 01:09:36;;;;;;;;;;;2.40;85.10;;;2.80;54.49;99432.16;5011074;28;113292;-76
2023/01/30 01:12:05;;;;;;;;;;;2.30;85.00;;;2.75;54.58;99437.50;5011511;28;114489;-76
2023/01/30 01:14:32;;;;;;;;;;;2.30;85.10;;;2.69;54.28;99431.13;5028054;28;124483;-76
2023/01/30 01:16:58;;;;;;;;;;;2.20;85.10;;;2.65;54.75;99419.88;5028916;27;123996;-76
2023/01/30 01:19:25;;;;;;;;;;;2.40;85.90;;;2.63;54.57;99432.94;5026684;27;114596;-76
2023/01/30 01:21:51;;;;;;;;;;;2.20;85.20;;;2.63;54.46;99432.94;5008943;28;112801;-76
2023/01/30 01:24:17;;;;;;;;;;;2.20;85.30;;;2.62;54.78;99433.19;4997722;28;122201;-76
2023/01/30 01:26:44;;;;;;;;;;;2.20;85.20;;;2.56;54.39;99437.72;5039931;27;124083;-77
2023/01/30 01:29:14;;;;;;;;;;;2.10;85.10;;;2.51;54.52;99440.34;5028425;27;115399;-76
2023/01/30 01:31:41;;;;;;;;;;;2.00;85.10;;;2.46;54.40;99437.53;4998929;27;114339;-77
2023/01/30 01:34:08;;;;;;;;;;;2.00;85.10;;;2.39;54.43;99454.03;5021967;27;123385;-76
2023/01/30 01:36:34;;;;;;;;;;;1.90;85.10;;;2.34;54.67;99458.56;5012511;27;123862;-76
2023/01/30 01:39:02;;;;;;;;;;;1.90;85.10;;;2.28;54.67;99457.63;5030603;27;114059;-76
2023/01/30 01:41:28;;;;;;;;;;;1.80;85.10;;;2.26;54.52;99445.28;5027861;28;113376;-76
2023/01/30 01:44:04;;;;;;;;;;;1.80;85.20;;;2.24;54.78;99426.47;5034457;27;124244;-76
2023/01/30 01:46:38;;;;;;;;;;;1.80;85.20;;;2.22;54.80;99431.31;5009903;28;124458;-77
2023/01/30 01:49:11;;;;;;;;;;;1.80;85.20;;;2.17;55.01;99425.78;4996018;28;115172;-77
2023/01/30 01:51:49;;;;;;;;;;;1.80;85.10;;;2.14;54.99;99437.97;5027100;28;113415;-77
2023/01/30 01:54:23;;;;;;;;;;;1.80;85.10;;;2.16;54.93;99440.47;5028360;28;124119;-76
2023/01/30 01:56:50;;;;;;;;;;;1.80;85.20;;;2.15;55.09;99436.94;5009615;28;124672;-76
2023/01/30 01:59:26;;;;;;;;;;;1.80;85.20;;;2.19;55.11;99423.63;5014749;28;113290;-76
2023/01/30 02:01:55;;;;;;;;;;;1.80;85.30;;;2.19;55.02;99427.19;5017773;28;114013;-76
2023/01/30 02:07:08;;;;;;;;;;;1.80;85.40;;;2.24;55.19;99433.81;5003726;28;124816;-77
2023/01/30 02:09:35;;;;;;;;;;;1.80;85.50;;;2.27;55.21;99441.50;5028413;28;114468;-76
2023/01/30 02:12:03;;;;;;;;;;;1.80;85.50;;;2.30;54.92;99447.31;5024289;27;113701;-77
2023/01/30 02:14:32;;;;;;;;;;;1.80;85.60;;;2.34;55.10;99442.22;5027887;28;124407;-76
2023/01/30 02:16:58;;;;;;;;;;;1.90;85.70;;;2.34;54.87;99434.03;5013015;28;123044;-76
2023/01/30 02:19:46;;;;;;;;;;;1.90;85.80;;;2.37;55.22;99423.47;4998485;28;114411;-76
2023/01/30 02:22:39;;;;;;;;;;;1.90;85.90;;;2.40;55.10;99419.41;5033131;28;114624;-76
2023/01/30 02:25:37;;;;;;;;;;;1.90;85.80;;;2.40;54.96;99409.34;5029368;28;124164;-76
2023/01/30 02:28:36;;;;;;;;;;;1.90;85.70;;;2.41;55.04;99416.44;5023623;28;124109;-76
2023/01/30 02:31:08;;;;;;;;;;;1.90;85.80;;;2.39;55.13;99398.66;5019699;28;114397;-76
2023/01/30 02:33:38;;;;;;;;;;;1.70;85.60;;;2.37;55.08;99379.81;5031581;27;113995;-76
2023/01/30 02:36:04;;;;;;;;;;;1.90;85.90;;;2.36;55.45;99399.16;5017347;28;125181;-77
2023/01/30 02:38:41;;;;;;;;;;;1.90;85.80;;;2.35;55.13;99406.50;5015159;27;123812;-77
2023/01/30 02:41:21;;;;;;;;;;;1.90;85.90;;;2.39;55.29;99415.88;5034564;28;114498;-77
2023/01/30 02:44:04;;;;;;;;;;;1.90;85.90;;;2.39;55.27;99395.94;5015242;28;113710;-77
2023/01/30 02:46:48;;;;;;;;;;;1.90;85.90;;;2.37;55.21;99373.56;5026438;27;124789;-77
2023/01/30 02:49:43;;;;;;;;;;;1.90;85.90;;;2.40;55.15;99351.25;5009306;28;123289;-77
2023/01/30 02:52:11;;;;;;;;;;;1.90;85.90;;;2.37;55.14;99379.81;5025792;28;114356;-77
2023/01/30 02:54:37;;;;;;;;;;;1.90;86.00;;;2.37;55.37;99389.91;5025783;28;114229;-77
2023/01/30 02:57:19;;;;;;;;;;;1.90;85.90;;;2.34;54.88;99390.41;5028855;28;124737;-77
2023/01/30 02:59:48;;;;;;;;;;;1.90;85.90;;;2.22;55.21;99361.28;5007710;28;123085;-77
2023/01/30 03:02:26;;;;;;;;;;;1.80;85.80;;;2.20;55.58;99371.63;5028130;27;114631;-77
2023/01/30 03:05:17;;;;;;;;;;;1.80;85.90;;;2.18;55.56;99371.03;5029855;28;113598;-77
2023/01/30 03:07:54;;;;;;;;;;;1.80;86.00;;;2.13;55.70;99351.84;5009488;28;123256;-77
2023/01/30 03:10:31;;;;;;;;;;;1.70;86.00;;;2.11;55.52;99337.63;5023534;28;124447;-77
2023/01/30 03:13:06;;;;;;;;;;;1.70;86.10;;;2.11;55.66;99329.44;5012982;27;115320;-77
2023/01/30 03:15:47;;;;;;;;;;;1.70;86.20;;;2.12;55.55;99338.44;5028264;28;115337;-77
2023/01/30 03:18:13;;;;;;;;;;;1.70;86.20;;;2.08;55.64;99324.50;5012831;28;123511;-77
2023/01/30 03:20:40;;;;;;;;;;;1.60;86.20;;;2.08;55.56;99313.59;5029874;28;123698;-77
2023/01/30 03:23:07;;;;;;;;;;;1.60;86.20;;;2.07;55.64;99302.91;5031962;27;114817;-77
2023/01/30 03:25:35;;;;;;;;;;;1.60;86.20;;;2.04;55.54;99279.69;5003573;28;112936;-76
2023/01/30 03:28:02;;;;;;;;;;;1.60;86.30;;;1.99;55.77;99260.56;5003957;28;124723;-77
2023/01/30 03:30:29;;;;;;;;;;;1.60;86.30;;;1.94;56.11;99238.66;5031028;28;123935;-77
2023/01/30 03:32:55;;;;;;;;;;;0.10;85.00;;;1.88;55.51;99228.72;5030989;28;114456;-77
2023/01/30 03:35:21;;;;;;;;;;;1.40;86.30;;;1.81;55.80;99219.91;5027339;28;113645;-77
2023/01/30 03:37:49;;;;;;;;;;;1.40;86.30;;;1.77;56.28;99223.13;5026503;27;125983;-79
2023/01/30 03:40:18;;;;;;;;;;;1.40;86.50;;;1.76;56.32;99232.34;5023871;28;124128;-76
2023/01/30 03:42:44;;;;;;;;;;;1.40;86.80;;;1.73;56.24;99224.66;5031319;28;114483;-76
2023/01/30 03:45:11;;;;;;;;;;;1.30;86.70;;;1.70;56.40;99225.16;5027156;28;113581;-76
2023/01/30 03:47:37;;;;;;;;;;;1.30;86.90;;;1.68;56.87;99235.47;5021729;28;124143;-76
2023/01/30 03:50:04;;;;;;;;;;;1.20;87.10;;;1.66;56.72;99240.31;5028797;28;123993;-76
2023/01/30 03:52:30;;;;;;;;;;;1.20;87.10;;;1.64;56.53;99231.59;5028784;27;114631;-76
2023/01/30 03:54:56;;;;;;;;;;;1.20;87.10;;;1.63;56.82;99243.53;5014824;28;113879;-76
2023/01/30 03:57:23;;;;;;;;;;;1.20;87.20;;;1.64;56.54;99250.66;5025894;28;124155;-76
2023/01/30 03:59:49;;;;;;;;;;;1.20;87.20;;;1.66;56.50;99259.38;5029639;28;123998;-76
2023/01/30 04:02:19;;;;;;;;;;;1.20;87.40;;;1.68;56.82;99267.31;5030782;28;115326;-76
2023/01/30 04:04:45;;;;;;;;;;;1.20;87.40;;;1.68;56.72;99251.81;5026752;28;114748;-76
2023/01/30 04:07:12;;;;;;;;;;;1.20;87.40;;;1.70;56.53;99257.03;5020220;27;124264;-76
2023/01/30 04:09:39;;;;;;;;;;;1.30;87.50;;;1.72;56.76;99258.44;4994270;28;123846;-76
2023/01/30 04:12:06;;;;;;;;;;;1.30;88.20;;;1.71;56.86;99267.66;5016234;28;114547;-76
2023/01/30 04:14:32;;;;;;;;;;;1.30;87.60;;;1.73;56.75;99254.63;5015202;28;113691;-76
2023/01/30 04:16:59;;;;;;;;;;;1.30;87.50;;;1.78;56.38;99262.09;5029525;28;123416;-76
2023/01/30 04:19:26;;;;;;;;;;;1.30;87.50;;;1.83;56.59;99258.59;5026721;27;124071;-76
2023/01/30 04:21:52;;;;;;;;;;;1.40;87.50;;;1.84;56.37;99255.66;5017974;28;114424;-75
2023/01/30 04:24:18;;;;;;;;;;;1.40;87.50;;;1.87;56.16;99266.06;5015077;27;113450;-76
2023/01/30 04:26:44;;;;;;;;;;;1.40;87.40;;;1.89;56.41;99252.19;4994106;28;123633;-76
2023/01/30 04:29:11;;;;;;;;;;;1.40;87.20;;;1.90;56.13;99243.75;5010368;28;124455;-76
2023/01/30 04:31:37;;;;;;;;;;;1.50;87.10;;;1.95;55.95;99251.22;5015600;28;114385;-76
2023/01/30 04:34:03;;;;;;;;;;;1.50;87.00;;;1.98;55.91;99257.00;5028706;28;113572;-77
2023/01/30 04:36:30;;;;;;;;;;;1.50;86.80;;;2.01;56.02;99255.66;5027657;27;124237;-76
2023/01/30 04:38:57;;;;;;;;;;;2.20;87.30;;;2.04;55.86;99249.72;5027663;28;124183;-76
2023/01/30 04:41:24;;;;;;;;;;;1.60;86.60;;;2.06;55.58;99252.22;4998466;28;113610;-76
2023/01/30 04:43:50;;;;;;;;;;;1.60;86.50;;;2.07;55.88;99265.63;5029452;27;113667;-78
2023/01/30 04:46:17;;;;;;;;;;;1.60;86.50;;;2.10;55.75;99254.22;5024023;28;124307;-76
2023/01/30 04:48:43;;;;;;;;;;;1.70;87.10;;;2.12;55.55;99254.81;5017743;28;124145;-76
2023/01/30 04:51:09;;;;;;;;;;;1.70;86.40;;;2.14;55.67;99254.53;5026424;28;115777;-76
2023/01/30 04:53:36;;;;;;;;;;;1.70;86.40;;;2.14;55.35;99260.00;5014288;28;113851;-76
2023/01/30 04:56:02;;;;;;;;;;;1.70;86.30;;;2.13;55.64;99253.72;5029428;27;124944;-77
2023/01/30 04:58:28;;;;;;;;;;;1.70;86.30;;;2.13;55.56;99248.28;5022407;27;123545;-76
2023/01/30 05:00:54;;;;;;;;;;;1.70;86.30;;;2.17;55.37;99254.03;5032396;27;114276;-76
2023/01/30 05:03:21;;;;;;;;;;;1.70;86.30;;;2.18;55.48;99248.34;5011575;28;113626;-76
2023/01/30 05:05:48;;;;;;;;;;;1.80;86.40;;;2.22;55.05;99252.22;5005932;28;124610;-76
2023/01/30 05:08:15;;;;;;;;;;;1.80;86.30;;;2.26;55.55;99238.09;5021412;28;123933;-76
2023/01/30 05:10:41;;;;;;;;;;;1.80;86.20;;;2.31;55.24;99243.63;5005574;28;114504;-76
2023/01/30 05:13:08;;;;;;;;;;;1.90;86.40;;;2.33;55.08;99217.78;5032332;27;113864;-76
2023/01/30 05:15:34;;;;;;;;;;;1.90;86.20;;;2.34;55.24;99226.81;5026348;28;124195;-76
2023/01/30 05:18:00;;;;;;;;;;;1.90;86.10;;;2.34;55.34;99227.63;5009602;28;124054;-76
2023/01/30 05:20:27;;;;;;;;;;;1.90;86.00;;;2.33;55.21;99216.97;5014238;28;114172;-76
2023/01/30 05:22:57;;;;;;;;;;;1.90;85.90;;;2.36;55.27;99219.19;5018137;27;113823;-77
2023/01/30 05:25:23;;;;;;;;;;;1.90;86.00;;;2.36;55.10;99205.56;4985582;28;123542;-77
2023/01/30 05:27:49;;;;;;;;;;;1.90;86.00;;;2.38;55.09;99203.41;4989012;28;124225;-77
2023/01/30 05:30:16;;;;;;;;;;;2.00;86.00;;;2.41;55.17;99202.91;4988419;28;114313;-77
2023/01/30 05:32:42;;;;;;;;;;;1.60;85.60;;;2.43;54.93;99203.50;4976522;28;113203;-77
2023/01/30 05:35:09;;;;;;;;;;;2.00;86.00;;;2.47;55.02;99193.72;4984111;28;124884;-77
2023/01/30 05:37:36;;;;;;;;;;;2.00;85.90;;;2.52;54.72;99195.72;5002896;28;124013;-78
2023/01/30 05:40:03;;;;;;;;;;;2.10;85.90;;;2.54;54.56;99188.09;4977230;28;114707;-77
2023/01/30 05:42:30;;;;;;;;;;;2.10;85.80;;;2.56;54.79;99186.78;4980633;28;113909;-76
2023/01/30 05:44:56;;;;;;;;;;;2.10;85.80;;;2.55;54.68;99179.69;4986143;28;124303;-77
2023/01/30 05:47:24;;;;;;;;;;;2.10;85.70;;;2.56;54.58;99178.59;4972541;28;123917;-77
2023/01/30 05:49:50;;;;;;;;;;;2.10;85.70;;;2.56;54.52;99181.31;4987353;28;114017;-77
2023/01/30 05:52:16;;;;;;;;;;;2.10;85.60;;;2.56;54.99;99181.31;4969958;28;113497;-76
2023/01/30 05:54:43;;;;;;;;;;;2.10;85.60;;;2.56;54.63;99186.78;4971457;28;124883;-77
2023/01/30 05:57:09;;;;;;;;;;;2.10;85.60;;;2.56;54.52;99181.31;4990162;28;125174;-77
2023/01/30 05:59:35;;;;;;;;;;;2.10;85.60;;;2.58;54.63;99183.78;4972884;28;113506;-77
2023/01/30 06:02:02;;;;;;;;;;;3.40;86.80;;;2.60;54.47;99207.00;4990463;28;112834;-77
2023/01/30 06:04:28;;;;;;;;;;;2.20;85.70;;;2.63;54.46;99203.81;5009752;28;123675;-77
2023/01/30 06:06:54;;;;;;;;;;;2.20;85.60;;;2.65;54.75;99201.63;5011632;28;124833;-76
2023/01/30 06:09:21;;;;;;;;;;;2.20;85.60;;;2.68;54.18;99194.03;5011530;27;114150;-76
2023/01/30 06:12:07;;;;;;;;;;;2.20;85.50;;;2.71;54.70;99204.44;5030280;27;113668;-77
2023/01/30 06:14:33;;;;;;;;;;;2.20;85.50;;;2.70;54.54;99200.06;4998594;28;124185;-78
2023/01/30 06:17:00;;;;;;;;;;;2.20;85.50;;;2.69;54.36;99196.53;5003425;28;121953;-78
2023/01/30 06:19:26;;;;;;;;;;;2.20;85.30;;;2.70;54.60;99191.88;5033593;27;114379;-75
2023/01/30 06:21:52;;;;;;;;;;;2.20;85.40;;;2.69;54.59;99184.75;4998809;28;112679;-76
2023/01/30 06:24:18;;;;;;;;;;;2.20;85.30;;;2.69;54.50;99196.53;5003449;28;124135;-77
2023/01/30 06:26:44;;;;;;;;;;;2.30;85.40;;;2.70;54.45;99184.53;5028438;27;124273;-76
2023/01/30 06:29:11;;;;;;;;;;;2.30;85.30;;;2.72;54.49;99184.28;5029295;28;115729;-76
2023/01/30 06:31:37;;;;;;;;;;;2.30;85.40;;;2.75;54.18;99179.13;4999803;28;114634;-76
2023/01/30 06:34:04;;;;;;;;;;;2.30;85.40;;;2.74;54.23;99172.03;5031740;27;123903;-77
2023/01/30 06:36:30;;;;;;;;;;;2.30;85.40;;;2.73;54.76;99181.28;5030643;27;125082;-77
2023/01/30 06:38:56;;;;;;;;;;;2.30;85.60;;;2.74;54.44;99177.50;5036960;27;114502;-76
2023/01/30 06:41:23;;;;;;;;;;;2.30;85.80;;;2.72;54.80;99152.38;5017987;28;113751;-75
2023/01/30 06:43:49;;;;;;;;;;;2.30;85.50;;;2.71;54.40;99160.78;5004125;28;123690;-76
2023/01/30 06:46:15;;;;;;;;;;;2.30;85.50;;;2.73;54.51;99158.63;5025153;27;124009;-81
2023/01/30 06:48:42;;;;;;;;;;;2.30;85.50;;;2.73;54.46;99164.09;5002890;28;113778;-77
2023/01/30 06:51:08;;;;;;;;;;;2.30;85.40;;;2.72;54.40;99167.91;5010399;28;113318;-76
2023/01/30 06:53:34;;;;;;;;;;;2.30;85.50;;;2.70;54.36;99150.97;5034894;27;124029;-76
2023/01/30 06:56:00;;;;;;;;;;;2.30;85.50;;;2.68;54.58;99162.13;4998579;28;123438;-76
2023/01/30 06:58:27;;;;;;;;;;;2.20;85.50;;;2.67;54.84;99143.28;5032710;28;114686;-76
2023/01/30 07:00:53;;;;;;;;;;;2.20;85.60;;;2.65;54.88;99147.06;5032399;27;114315;-76
2023/01/30 07:03:19;;;;;;;;;;;2.20;85.70;;;2.68;54.79;99150.38;5030828;27;124501;-76
2023/01/30 07:05:46;;;;;;;;;;;2.20;85.80;;;2.72;55.00;99162.47;5030372;27;123762;-76
2023/01/30 07:08:14;;;;;;;;;;;2.30;85.90;;;2.76;54.78;99158.13;5030803;28;113810;-76
2023/01/30 07:10:41;;;;;;;;;;;2.30;86.00;;;2.78;54.60;99172.34;5031313;28;114398;-77
2023/01/30 07:13:07;;;;;;;;;;;2.30;85.90;;;2.77;54.54;99163.34;5031015;27;124040;-76
2023/01/30 07:15:33;;;;;;;;;;;2.30;85.90;;;2.78;54.66;99178.63;5004785;28;123821;-76
2023/01/30 07:18:00;;;;;;;;;;;2.30;86.00;;;2.81;54.87;99182.75;5027732;27;115368;-76
2023/01/30 07:20:26;;;;;;;;;;;2.40;86.10;;;2.81;54.83;99190.94;5031682;27;114638;-76
2023/01/30 07:22:54;;;;;;;;;;;2.30;86.10;;;2.82;54.97;99201.63;5031399;27;124756;-76
2023/01/30 07:25:24;;;;;;;;;;;2.40;86.20;;;2.83;54.94;99191.53;5013826;28;124284;-76
2023/01/30 07:27:55;;;;;;;;;;;2.40;86.20;;;2.85;54.74;99179.28;5016627;28;113555;-76
2023/01/30 07:30:22;;;;;;;;;;;2.40;86.20;;;2.86;54.54;99191.00;5011923;28;114204;-77
2023/01/30 07:32:50;;;;;;;;;;;2.40;86.30;;;2.90;55.10;99199.50;5000095;28;123984;-76
2023/01/30 07:35:16;;;;;;;;;;;2.40;86.40;;;2.94;54.75;99196.03;5012744;28;124410;-76
2023/01/30 07:37:50;;;;;;;;;;;2.50;86.50;;;3.00;55.08;99186.81;5015869;28;114504;-76
2023/01/30 07:40:17;;;;;;;;;;;2.50;86.50;;;3.01;55.20;99183.03;5031459;27;113478;-76
2023/01/30 07:42:43;;;;;;;;;;;2.60;86.50;;;3.06;54.85;99202.22;4998054;28;123212;-76
2023/01/30 07:45:10;;;;;;;;;;;2.60;86.60;;;3.12;55.45;99210.44;5033341;27;124473;-76
2023/01/30 07:47:37;;;;;;;;;;;2.60;86.70;;;3.16;55.23;99208.88;5013600;28;114412;-76
2023/01/30 07:50:03;;;;;;;;;;;2.70;86.90;;;3.17;55.19;99207.78;5013231;28;113380;-77
2023/01/30 07:52:30;;;;;;;;;;;2.70;86.90;;;3.20;55.38;99207.28;5017476;27;123259;-76
2023/01/30 07:54:56;;;;;;;;;;;2.70;86.90;;;3.25;55.45;99205.44;5024134;28;123942;-75
2023/01/30 07:57:22;;;;;;;;;;;2.80;87.00;;;3.31;55.61;99198.16;5030608;27;114396;-76
2023/01/30 07:59:49;;;;;;;;;;;2.80;87.00;;;3.38;55.13;99206.94;5031437;27;113623;-76
2023/01/30 08:02:15;;;;;;;;;;;2.90;87.10;;;3.42;55.29;99191.72;4986804;28;123291;-75
2023/01/30 08:04:41;;;;;;;;;;;2.90;87.10;;;3.45;55.18;99182.19;5011424;28;124100;-76
2023/01/30 08:07:07;;;;;;;;;;;3.00;87.10;;;3.47;54.94;99186.31;5007083;28;114594;-76
2023/01/30 08:09:34;;;;;;;;;;;3.00;87.10;;;3.50;55.37;99176.78;5015214;28;114089;-76
2023/01/30 08:12:00;;;;;;;;;;;3.00;87.00;;;3.54;55.16;99197.03;5030133;27;124158;-76
2023/01/30 08:14:28;;;;;;;;;;;3.10;87.10;;;3.59;55.30;99188.06;5011283;27;123934;-76
2023/01/30 08:16:56;;;;;;;;;;;3.10;87.00;;;3.61;54.95;99219.50;5030580;27;114856;-76
2023/01/30 08:19:22;;;;;;;;;;;3.10;87.00;;;3.63;55.21;99231.00;5015116;28;112828;-76
2023/01/30 08:21:48;;;;;;;;;;;4.80;88.50;;;3.65;55.57;99233.47;5029716;27;124519;-78
2023/01/30 08:24:15;;;;;;;;;;;3.20;87.10;;;3.64;55.57;99223.63;5031057;28;123344;-76
2023/01/30 08:26:41;;;;;;;;;;;3.10;87.10;;;3.61;55.49;99208.59;5030188;27;113464;-76
2023/01/30 08:29:07;;;;;;;;;;;3.10;87.30;;;3.60;55.73;99214.28;4998893;28;113114;-75
2023/01/30 08:31:33;;;;;;;;;;;3.10;87.30;;;3.60;55.48;99206.94;5012230;28;124346;-75
2023/01/30 08:34:00;;;;;;;;;;;3.20;87.50;;;3.63;55.48;99187.31;5030190;28;123918;-75
2023/01/30 08:36:26;;;;;;;;;;;3.20;87.70;;;3.68;55.64;99173.69;5029578;27;114812;-76
2023/01/30 08:38:52;;;;;;;;;;;3.20;87.60;;;3.72;55.92;99160.31;4997826;28;113163;-76
2023/01/30 08:41:18;;;;;;;;;;;3.20;87.80;;;3.75;55.54;99179.75;5012303;28;124131;-75
2023/01/30 08:43:45;;;;;;;;;;;3.30;87.90;;;3.79;55.66;99160.94;5025294;27;123835;-75
2023/01/30 08:46:11;;;;;;;;;;;3.30;87.80;;;3.82;55.45;99176.81;5015094;28;113401;-76
2023/01/30 08:48:39;;;;;;;;;;;3.30;87.80;;;3.83;55.58;99167.53;5030945;27;113712;-76
2023/01/30 08:51:05;;;;;;;;;;;3.40;87.80;;;3.84;55.07;99158.28;5031362;28;124110;-76
2023/01/30 08:53:32;;;;;;;;;;;3.40;87.70;;;3.86;55.45;99155.25;5032105;27;123424;-76
2023/01/30 08:55:58;;;;;;;;;;;3.30;87.50;;;3.90;55.87;99145.47;4998190;28;114422;-76
2023/01/30 08:58:24;;;;;;;;;;;3.40;87.70;;;3.95;55.15;99154.53;5030659;27;114650;-76
2023/01/30 09:00:52;;;;;;;;;;;3.40;87.60;;;4.01;55.62;99141.72;5011787;27;124317;-76
2023/01/30 09:03:18;;;;;;;;;;;3.50;87.60;;;4.08;55.33;99119.63;5030427;27;123750;-77
2023/01/30 09:05:46;;;;;;;;;;;3.50;87.50;;;4.14;54.85;99126.78;5029439;28;114690;-76
2023/01/30 09:08:12;;;;;;;;;;;3.60;87.60;;;4.16;55.42;99105.47;5016118;27;112954;-79
2023/01/30 09:10:38;;;;;;;;;;;3.60;87.50;;;4.18;55.19;99093.19;5023097;28;123295;-76
2023/01/30 09:13:07;;;;;;;;;;;3.60;87.40;;;4.21;55.01;99094.56;5011780;28;126437;-77
2023/01/30 09:15:34;;;;;;;;;;;3.70;87.50;;;4.26;55.13;99091.84;5014556;28;113315;-76
2023/01/30 09:18:00;;;;;;;;;;;3.70;87.50;;;4.29;54.96;99099.53;5030040;27;112973;-76
2023/01/30 09:20:26;;;;;;;;;;;3.70;87.50;;;4.33;55.32;99110.78;5029604;27;124169;-76
2023/01/30 09:22:53;;;;;;;;;;;3.80;87.50;;;4.34;54.94;99105.03;5027215;28;124565;-76
2023/01/30 09:25:19;;;;;;;;;;;3.80;87.40;;;4.38;54.99;99108.91;5031425;28;114819;-76
2023/01/30 09:27:49;;;;;;;;;;;3.80;87.50;;;4.46;55.11;99120.41;5016153;28;113936;-76
2023/01/30 09:30:16;;;;;;;;;;;3.90;87.60;;;4.52;54.92;99111.19;5034281;27;124264;-79
2023/01/30 09:32:42;;;;;;;;;;;4.00;87.60;;;4.53;55.21;99094.47;5033283;28;124548;-76
2023/01/30 09:35:09;;;;;;;;;;;4.00;87.40;;;4.58;54.95;99096.44;5033696;27;114703;-76
2023/01/30 09:37:35;;;;;;;;;;;4.10;87.50;;;4.64;54.77;99096.16;4992051;28;113828;-76
2023/01/30 09:40:03;;;;;;;;;;;4.10;87.50;;;4.71;54.86;99106.88;5005665;28;124283;-76
2023/01/30 09:42:47;;;;;;;;;;;4.20;87.60;;;4.77;55.42;99105.81;5008746;28;124878;-76
2023/01/30 09:45:31;;;;;;;;;;;4.20;87.90;;;4.79;55.37;99114.59;5006692;28;115758;-76
2023/01/30 09:48:19;;;;;;;;;;;4.30;88.30;;;4.77;55.20;99086.66;5010722;28;114272;-76
2023/01/30 09:51:01;;;;;;;;;;;4.30;88.60;;;4.81;55.62;99084.22;4995708;28;124188;-76
2023/01/30 09:53:46;;;;;;;;;;;4.30;88.70;;;4.83;55.52;99093.78;5010071;28;124079;-76
2023/01/30 09:56:12;;;;;;;;;;;4.30;88.90;;;4.86;56.44;99090.53;4989040;28;115017;-76
2023/01/30 09:58:56;;;;;;;;;;;4.40;89.20;;;4.92;55.55;99068.66;4974558;28;113287;-76
2023/01/30 10:01:47;;;;;;;;;;;4.40;89.30;;;4.94;56.08;99058.25;4990055;28;124437;-76
2023/01/30 10:04:22;;;;;;;;;;;4.40;89.20;;;4.94;55.93;99048.09;4970997;28;123790;-76
2023/01/30 10:07:12;;;;;;;;;;;4.50;89.30;;;4.97;56.25;99072.25;4961855;28;113774;-76
2023/01/30 10:09:48;;;;;;;;;;;4.50;89.40;;;5.00;56.42;99054.44;4977283;28;113607;-77
2023/01/30 10:12:26;;;;;;;;;;;4.50;89.40;;;5.05;56.09;99040.75;4972269;28;124127;-76
2023/01/30 10:15:01;;;;;;;;;;;4.60;89.40;;;5.09;56.26;99048.16;4985596;28;123557;-77
2023/01/30 10:17:33;;;;;;;;;;;4.60;89.30;;;5.13;55.51;99042.97;4973372;28;114549;-76
2023/01/30 10:20:30;;;;;;;;;;;4.70;89.30;;;5.18;56.12;99029.28;4988274;28;112886;-76
2023/01/30 10:23:10;;;;;;;;;;;4.70;89.40;;;5.20;56.16;99010.66;4987273;28;124218;-76
2023/01/30 10:25:43;;;;;;;;;;;4.70;89.40;;;5.24;56.34;99021.91;4970272;28;123112;-76
2023/01/30 10:28:25;;;;;;;;;;;4.80;89.40;;;5.29;56.19;99025.47;4986854;28;113504;-76
2023/01/30 10:31:02;;;;;;;;;;;4.80;89.40;;;5.34;55.88;99023.81;5009960;28;113428;-76
2023/01/30 10:33:32;;;;;;;;;;;4.90;89.40;;;5.38;56.40;99019.44;5008388;28;124525;-76
2023/01/30 10:36:01;;;;;;;;;;;4.90;89.50;;;5.42;55.98;99023.28;5005577;28;123913;-76
2023/01/30 10:38:42;;;;;;;;;;;5.00;89.50;;;5.48;56.30;99027.66;5027319;27;115492;-76
2023/01/30 10:41:48;;;;;;;;;;;5.00;89.40;;;5.49;55.84;99035.63;4997169;28;113898;-75
2023/01/30 10:44:17;;;;;;;;;;;5.00;89.40;;;5.48;56.31;99031.25;5010955;28;124348;-75
2023/01/30 10:47:25;;;;;;;;;;;5.00;89.40;;;5.49;56.67;99023.84;5028552;27;123959;-75
2023/01/30 10:49:55;;;;;;;;;;;5.10;89.60;;;5.48;56.52;99020.28;5013888;28;114451;-76
2023/01/30 10:52:40;;;;;;;;;;;5.10;89.80;;;5.50;56.83;99014.50;5009111;28;113804;-76
2023/01/30 10:55:34;;;;;;;;;;;5.10;90.00;;;5.53;56.44;99013.97;5013107;28;123522;-75
2023/01/30 10:58:05;;;;;;;;;;;5.10;90.10;;;5.52;57.08;99006.84;5010868;28;123597;-76
2023/01/30 11:00:35;;;;;;;;;;;5.10;90.20;;;5.56;56.88;99024.38;5028967;27;114622;-76
2023/01/30 11:03:13;;;;;;;;;;;5.20;90.30;;;5.63;56.97;99019.44;5012838;28;112914;-77
2023/01/30 11:05:50;;;;;;;;;;;5.20;90.30;;;5.66;57.52;99018.88;5012106;28;121984;-76
2023/01/30 11:08:25;;;;;;;;;;;5.20;90.50;;;5.65;57.91;99025.47;5001921;27;123519;-76
2023/01/30 11:10:52;;;;;;;;;;;5.60;90.80;;;5.67;58.07;99027.94;5010022;27;114046;-76
2023/01/30 11:13:23;;;;;;;;;;;5.20;90.70;;;5.68;58.04;99029.59;5013781;27;113838;-76
2023/01/30 11:15:53;;;;;;;;;;;5.30;90.80;;;5.70;57.90;99035.63;4998029;28;124785;-76
2023/01/30 11:18:20;;;;;;;;;;;5.30;90.90;;;5.70;58.96;99028.22;5020469;28;124015;-76
2023/01/30 11:20:57;;;;;;;;;;;5.30;91.10;;;5.74;58.34;99025.75;5013363;28;114807;-75
2023/01/30 11:23:26;;;;;;;;;;;5.30;91.10;;;5.74;58.68;99023.81;5008042;28;113645;-76
2023/01/30 11:26:00;;;;;;;;;;;5.30;91.30;;;5.74;58.30;99001.88;5006040;28;124932;-76
2023/01/30 11:28:26;;;;;;;;;;;5.30;91.20;;;5.74;58.64;99010.13;5026070;28;124656;-75
2023/01/30 11:30:58;;;;;;;;;;;5.30;91.20;;;5.73;58.36;99024.09;4992838;28;115577;-76
2023/01/30 11:33:36;;;;;;;;;;;5.30;91.30;;;5.72;59.30;99009.59;5013713;28;114745;-76
2023/01/30 11:36:04;;;;;;;;;;;5.30;91.30;;;5.69;59.37;99018.34;5011640;28;123895;-75
2023/01/30 11:38:32;;;;;;;;;;;4.30;91.00;;;5.68;59.39;99024.94;5026051;27;123581;-76
2023/01/30 11:41:04;;;;;;;;;;;5.30;91.50;;;5.67;59.59;99031.53;4969325;28;114816;-76
2023/01/30 11:43:33;;;;;;;;;;;5.30;91.60;;;5.67;59.45;99020.56;4965318;28;113953;-78